This is the latest recevied weather packets stored in our database for station/object LRCL. If no packets are shown the sender has not sent any weather packets the latest 10 day(s).
| Time | Temp. | Humidity | Pressure | Rain* | Wind** | Luminosity | Snow |
|---|---|---|---|---|---|---|---|
| 1777543388 | 10° C | 40% | 1024 hPa | - | - | - | - |
| 1777542488 | 11.11° C | 38% | 1024 hPa | - | - | - | - |
| 1777541588 | 11.11° C | 38% | 1024 hPa | - | - | - | - |
| 1777540688 | 10° C | 40% | 1024 hPa | - | - | - | - |
| 1777539788 | 10° C | 40% | 1024 hPa | - | - | - | - |
| 1777538915 | 10° C | 40% | 1024 hPa | - | - | - | - |
| 1777537988 | 10° C | 40% | 1024 hPa | - | - | - | - |
| 1777537097 | 8.89° C | 43% | 1024 hPa | - | - | - | - |
| 1777536188 | 8.89° C | 43% | 1024 hPa | - | - | - | - |
| 1777535288 | 8.89° C | 46% | 1024 hPa | - | - | - | - |
| 1777534388 | 8.89° C | 46% | 1024 hPa | - | - | - | - |
| 1777533488 | 7.22° C | 57% | 1024 hPa | - | - | - | - |
| 1777532588 | 7.22° C | 57% | 1024 hPa | - | - | - | - |
| 1777531688 | 7.22° C | 53% | 1024 hPa | - | - | - | - |
| 1777530788 | 7.22° C | 53% | 1024 hPa | - | - | - | - |
| 1777529888 | 6.11° C | 57% | 1024 hPa | - | - | - | - |
| 1777528988 | 6.11° C | 57% | 1024 hPa | - | - | - | - |
| 1777528089 | 5° C | 61% | 1024 hPa | - | - | - | - |
| 1777527188 | 5° C | 61% | 1024 hPa | - | - | - | - |
| 1777526288 | 3.89° C | 61% | 1024 hPa | - | - | - | - |
| 1777525388 | 3.89° C | 61% | 1024 hPa | - | - | - | - |
| 1777524488 | 2.78° C | 65% | 1024 hPa | - | - | - | - |
| 1777523588 | 2.78° C | 65% | 1024 hPa | - | - | - | - |
| 1777522688 | 2.78° C | 65% | 1024 hPa | - | - | - | - |
| 1777521788 | 2.78° C | 65% | 1024 hPa | - | - | - | - |
* Rain since midnight (hover to see other rain measurements)
** Current wind speed in m/s (hover to see current wind gust speed)